La Algaba, Spain
Current Conditions -  °F | °C
As of 9:00 PM on Thursday 23 Oct 2014 (Local Time) from LEZL Reporting Station
Clear Clear  
Wind Chill: 70°   Ceiling: Unl
Heat Index: 70°   Visibility: 6mi
Dew Point: 52°   Wind: 6mph
Humidity: 53%   Direction: 40°NE
Pressure: 30.06"   Gusts: NA
Location:  37.46°N, 6.01°W
Report Text: LEZL 231900Z 04005KT CAVOK 21/11 Q1018 NOSIG
Loading
Personal Weather Stations






























Interactive Weather Map
Tropical Storm Tracking
New forecast layout! Learn more

10-Day Weather Forecast

Advertisements
Track Severe Weather on mobile